sensor_id;sensor_type;location;lat;lon;timestamp;P1;durP1;ratioP1;P2;durP2;ratioP2
44646;SDS011;56315;-33.902;151.160;2023-04-24T00:01:44;4.00;;;1.30;;
44646;SDS011;56315;-33.902;151.160;2023-04-24T00:04:11;5.40;;;1.10;;
44646;SDS011;56315;-33.902;151.160;2023-04-24T00:06:42;6.03;;;1.42;;
44646;SDS011;56315;-33.902;151.160;2023-04-24T00:09:09;3.17;;;1.35;;
44646;SDS011;56315;-33.902;151.160;2023-04-24T00:11:37;3.70;;;1.15;;
44646;SDS011;56315;-33.902;151.160;2023-04-24T00:14:04;2.88;;;0.73;;
44646;SDS011;56315;-33.902;151.160;2023-04-24T00:16:31;4.38;;;1.38;;
44646;SDS011;56315;-33.902;151.160;2023-04-24T00:18:58;3.00;;;0.82;;
44646;SDS011;56315;-33.902;151.160;2023-04-24T00:21:26;3.05;;;1.10;;
44646;SDS011;56315;-33.902;151.160;2023-04-24T00:23:53;3.67;;;1.00;;
44646;SDS011;56315;-33.902;151.160;2023-04-24T00:26:20;4.00;;;1.10;;
44646;SDS011;56315;-33.902;151.160;2023-04-24T00:28:48;5.18;;;1.20;;
44646;SDS011;56315;-33.902;151.160;2023-04-24T00:31:15;5.35;;;1.13;;
44646;SDS011;56315;-33.902;151.160;2023-04-24T00:33:43;4.05;;;1.17;;
44646;SDS011;56315;-33.902;151.160;2023-04-24T00:36:10;5.25;;;1.13;;
44646;SDS011;56315;-33.902;151.160;2023-04-24T00:38:37;3.88;;;1.10;;
44646;SDS011;56315;-33.902;151.160;2023-04-24T00:41:05;4.45;;;1.30;;
44646;SDS011;56315;-33.902;151.160;2023-04-24T00:43:32;5.00;;;1.10;;
44646;SDS011;56315;-33.902;151.160;2023-04-24T00:46:00;4.25;;;1.23;;
44646;SDS011;56315;-33.902;151.160;2023-04-24T00:48:27;5.28;;;1.38;;
44646;SDS011;56315;-33.902;151.160;2023-04-24T00:50:55;5.10;;;1.15;;
44646;SDS011;56315;-33.902;151.160;2023-04-24T00:53:24;5.95;;;1.10;;
44646;SDS011;56315;-33.902;151.160;2023-04-24T00:55:51;4.40;;;1.20;;
44646;SDS011;56315;-33.902;151.160;2023-04-24T00:58:18;4.65;;;1.17;;
44646;SDS011;56315;-33.902;151.160;2023-04-24T01:00:46;3.88;;;0.95;;
44646;SDS011;56315;-33.902;151.160;2023-04-24T01:03:19;8.67;;;1.47;;
44646;SDS011;56315;-33.902;151.160;2023-04-24T01:05:52;4.18;;;1.30;;
44646;SDS011;56315;-33.902;151.160;2023-04-24T01:08:20;4.68;;;1.13;;
44646;SDS011;56315;-33.902;151.160;2023-04-24T01:10:53;5.53;;;1.35;;
44646;SDS011;56315;-33.902;151.160;2023-04-24T01:13:21;4.32;;;1.02;;
44646;SDS011;56315;-33.902;151.160;2023-04-24T01:15:49;4.43;;;0.88;;
44646;SDS011;56315;-33.902;151.160;2023-04-24T01:18:16;4.18;;;1.30;;
44646;SDS011;56315;-33.902;151.160;2023-04-24T01:20:44;5.18;;;1.30;;
44646;SDS011;56315;-33.902;151.160;2023-04-24T01:23:12;5.60;;;1.40;;
44646;SDS011;56315;-33.902;151.160;2023-04-24T01:25:39;4.43;;;0.90;;
44646;SDS011;56315;-33.902;151.160;2023-04-24T01:28:06;5.32;;;1.15;;
44646;SDS011;56315;-33.902;151.160;2023-04-24T01:30:34;5.30;;;1.08;;
44646;SDS011;56315;-33.902;151.160;2023-04-24T01:33:02;5.57;;;1.25;;
44646;SDS011;56315;-33.902;151.160;2023-04-24T01:35:29;5.70;;;1.02;;
44646;SDS011;56315;-33.902;151.160;2023-04-24T01:37:57;4.15;;;1.10;;
44646;SDS011;56315;-33.902;151.160;2023-04-24T01:40:24;5.63;;;1.27;;
44646;SDS011;56315;-33.902;151.160;2023-04-24T01:42:51;6.07;;;1.25;;
44646;SDS011;56315;-33.902;151.160;2023-04-24T01:45:19;3.47;;;1.25;;
44646;SDS011;56315;-33.902;151.160;2023-04-24T01:47:46;6.15;;;1.52;;
44646;SDS011;56315;-33.902;151.160;2023-04-24T01:50:14;5.13;;;1.30;;
44646;SDS011;56315;-33.902;151.160;2023-04-24T01:52:41;5.00;;;1.48;;
44646;SDS011;56315;-33.902;151.160;2023-04-24T01:55:09;6.32;;;1.65;;
44646;SDS011;56315;-33.902;151.160;2023-04-24T01:57:36;5.85;;;1.92;;
44646;SDS011;56315;-33.902;151.160;2023-04-24T02:00:04;8.57;;;2.40;;
44646;SDS011;56315;-33.902;151.160;2023-04-24T02:02:32;11.15;;;2.70;;
44646;SDS011;56315;-33.902;151.160;2023-04-24T02:05:00;8.43;;;2.35;;
44646;SDS011;56315;-33.902;151.160;2023-04-24T02:07:28;10.27;;;3.03;;
44646;SDS011;56315;-33.902;151.160;2023-04-24T02:09:55;14.48;;;3.65;;
44646;SDS011;56315;-33.902;151.160;2023-04-24T02:12:22;10.20;;;3.10;;
44646;SDS011;56315;-33.902;151.160;2023-04-24T02:14:50;9.85;;;3.67;;
44646;SDS011;56315;-33.902;151.160;2023-04-24T02:17:17;13.00;;;3.58;;
44646;SDS011;56315;-33.902;151.160;2023-04-24T02:19:44;11.55;;;2.63;;
44646;SDS011;56315;-33.902;151.160;2023-04-24T02:22:12;12.60;;;3.75;;
44646;SDS011;56315;-33.902;151.160;2023-04-24T02:24:39;12.32;;;3.17;;
44646;SDS011;56315;-33.902;151.160;2023-04-24T02:27:06;17.40;;;3.60;;
44646;SDS011;56315;-33.902;151.160;2023-04-24T02:29:34;12.32;;;3.67;;
44646;SDS011;56315;-33.902;151.160;2023-04-24T02:32:01;14.00;;;3.75;;
44646;SDS011;56315;-33.902;151.160;2023-04-24T02:34:28;10.02;;;3.13;;
44646;SDS011;56315;-33.902;151.160;2023-04-24T02:36:56;14.98;;;3.83;;
44646;SDS011;56315;-33.902;151.160;2023-04-24T02:39:24;9.57;;;2.90;;
44646;SDS011;56315;-33.902;151.160;2023-04-24T02:41:51;10.25;;;2.75;;
44646;SDS011;56315;-33.902;151.160;2023-04-24T02:44:18;13.45;;;3.42;;
44646;SDS011;56315;-33.902;151.160;2023-04-24T02:46:47;12.70;;;3.00;;
44646;SDS011;56315;-33.902;151.160;2023-04-24T02:49:14;10.80;;;3.00;;
44646;SDS011;56315;-33.902;151.160;2023-04-24T02:51:41;10.57;;;2.70;;
44646;SDS011;56315;-33.902;151.160;2023-04-24T02:54:08;10.32;;;2.70;;
44646;SDS011;56315;-33.902;151.160;2023-04-24T02:56:36;10.25;;;2.83;;
44646;SDS011;56315;-33.902;151.160;2023-04-24T02:59:03;14.63;;;2.90;;
44646;SDS011;56315;-33.902;151.160;2023-04-24T03:01:31;10.85;;;2.75;;
44646;SDS011;56315;-33.902;151.160;2023-04-24T03:03:58;13.15;;;2.40;;
44646;SDS011;56315;-33.902;151.160;2023-04-24T03:06:25;9.23;;;2.30;;
44646;SDS011;56315;-33.902;151.160;2023-04-24T03:08:52;6.82;;;2.25;;
44646;SDS011;56315;-33.902;151.160;2023-04-24T03:11:20;11.77;;;2.35;;
44646;SDS011;56315;-33.902;151.160;2023-04-24T03:13:47;11.15;;;2.88;;
44646;SDS011;56315;-33.902;151.160;2023-04-24T03:16:14;11.52;;;2.78;;
44646;SDS011;56315;-33.902;151.160;2023-04-24T03:18:41;12.40;;;3.00;;
44646;SDS011;56315;-33.902;151.160;2023-04-24T03:21:09;13.10;;;2.92;;
44646;SDS011;56315;-33.902;151.160;2023-04-24T03:23:37;12.15;;;3.35;;
44646;SDS011;56315;-33.902;151.160;2023-04-24T03:26:05;12.32;;;2.63;;
44646;SDS011;56315;-33.902;151.160;2023-04-24T03:28:34;10.63;;;2.65;;
44646;SDS011;56315;-33.902;151.160;2023-04-24T03:31:03;10.35;;;2.70;;
44646;SDS011;56315;-33.902;151.160;2023-04-24T03:33:30;16.73;;;3.70;;
44646;SDS011;56315;-33.902;151.160;2023-04-24T03:35:57;10.77;;;2.90;;
44646;SDS011;56315;-33.902;151.160;2023-04-24T03:38:24;12.23;;;3.83;;
44646;SDS011;56315;-33.902;151.160;2023-04-24T03:40:52;10.88;;;2.72;;
44646;SDS011;56315;-33.902;151.160;2023-04-24T03:43:19;11.55;;;2.92;;
44646;SDS011;56315;-33.902;151.160;2023-04-24T03:45:46;13.88;;;3.20;;
44646;SDS011;56315;-33.902;151.160;2023-04-24T03:48:14;14.23;;;3.72;;
44646;SDS011;56315;-33.902;151.160;2023-04-24T03:50:42;14.55;;;3.50;;
44646;SDS011;56315;-33.902;151.160;2023-04-24T03:53:09;12.68;;;2.80;;
44646;SDS011;56315;-33.902;151.160;2023-04-24T03:55:36;13.80;;;3.20;;
44646;SDS011;56315;-33.902;151.160;2023-04-24T03:58:03;11.70;;;3.20;;
44646;SDS011;56315;-33.902;151.160;2023-04-24T04:00:31;10.55;;;2.92;;
44646;SDS011;56315;-33.902;151.160;2023-04-24T04:03:00;14.85;;;3.70;;
44646;SDS011;56315;-33.902;151.160;2023-04-24T04:05:27;13.15;;;3.55;;
44646;SDS011;56315;-33.902;151.160;2023-04-24T04:07:54;14.65;;;2.90;;
44646;SDS011;56315;-33.902;151.160;2023-04-24T04:10:21;16.02;;;4.03;;
44646;SDS011;56315;-33.902;151.160;2023-04-24T04:12:49;16.67;;;3.63;;
44646;SDS011;56315;-33.902;151.160;2023-04-24T04:15:16;10.88;;;2.75;;
44646;SDS011;56315;-33.902;151.160;2023-04-24T04:17:43;13.13;;;3.00;;
44646;SDS011;56315;-33.902;151.160;2023-04-24T04:20:11;13.02;;;3.38;;
44646;SDS011;56315;-33.902;151.160;2023-04-24T04:22:38;13.20;;;3.35;;
44646;SDS011;56315;-33.902;151.160;2023-04-24T04:25:06;11.77;;;3.03;;
44646;SDS011;56315;-33.902;151.160;2023-04-24T04:27:34;12.82;;;3.42;;
44646;SDS011;56315;-33.902;151.160;2023-04-24T04:30:02;14.70;;;3.63;;
44646;SDS011;56315;-33.902;151.160;2023-04-24T04:32:31;12.98;;;3.05;;
44646;SDS011;56315;-33.902;151.160;2023-04-24T04:35:01;12.63;;;3.28;;
44646;SDS011;56315;-33.902;151.160;2023-04-24T04:37:29;14.32;;;3.28;;
44646;SDS011;56315;-33.902;151.160;2023-04-24T04:39:59;13.25;;;3.20;;
44646;SDS011;56315;-33.902;151.160;2023-04-24T04:42:31;13.02;;;3.25;;
44646;SDS011;56315;-33.902;151.160;2023-04-24T04:45:08;12.82;;;3.38;;
44646;SDS011;56315;-33.902;151.160;2023-04-24T04:47:37;11.00;;;3.10;;
44646;SDS011;56315;-33.902;151.160;2023-04-24T04:50:05;11.55;;;2.92;;
44646;SDS011;56315;-33.902;151.160;2023-04-24T04:52:33;13.38;;;2.90;;
44646;SDS011;56315;-33.902;151.160;2023-04-24T04:55:00;15.32;;;3.00;;
44646;SDS011;56315;-33.902;151.160;2023-04-24T04:57:28;14.25;;;3.30;;
44646;SDS011;56315;-33.902;151.160;2023-04-24T04:59:56;19.48;;;4.95;;
44646;SDS011;56315;-33.902;151.160;2023-04-24T05:02:23;18.77;;;3.95;;
44646;SDS011;56315;-33.902;151.160;2023-04-24T05:04:51;20.17;;;5.07;;
44646;SDS011;56315;-33.902;151.160;2023-04-24T05:07:18;20.60;;;4.55;;
44646;SDS011;56315;-33.902;151.160;2023-04-24T05:09:46;16.40;;;3.58;;
44646;SDS011;56315;-33.902;151.160;2023-04-24T05:12:13;24.63;;;4.53;;
44646;SDS011;56315;-33.902;151.160;2023-04-24T05:14:40;17.98;;;4.43;;
44646;SDS011;56315;-33.902;151.160;2023-04-24T05:17:07;17.88;;;4.03;;
44646;SDS011;56315;-33.902;151.160;2023-04-24T05:19:35;18.90;;;4.20;;
44646;SDS011;56315;-33.902;151.160;2023-04-24T05:22:04;19.65;;;4.35;;
44646;SDS011;56315;-33.902;151.160;2023-04-24T05:24:32;18.17;;;4.63;;
44646;SDS011;56315;-33.902;151.160;2023-04-24T05:27:00;22.05;;;4.40;;
44646;SDS011;56315;-33.902;151.160;2023-04-24T05:29:31;19.38;;;3.97;;
44646;SDS011;56315;-33.902;151.160;2023-04-24T05:31:59;21.23;;;4.50;;
44646;SDS011;56315;-33.902;151.160;2023-04-24T05:34:26;21.58;;;4.75;;
44646;SDS011;56315;-33.902;151.160;2023-04-24T05:36:53;21.90;;;5.25;;
44646;SDS011;56315;-33.902;151.160;2023-04-24T05:39:21;19.02;;;4.53;;
44646;SDS011;56315;-33.902;151.160;2023-04-24T05:41:50;19.70;;;5.53;;
44646;SDS011;56315;-33.902;151.160;2023-04-24T05:44:17;20.48;;;4.53;;
44646;SDS011;56315;-33.902;151.160;2023-04-24T05:46:45;25.23;;;5.72;;
44646;SDS011;56315;-33.902;151.160;2023-04-24T05:49:12;30.58;;;5.57;;
44646;SDS011;56315;-33.902;151.160;2023-04-24T05:51:39;25.83;;;4.55;;
44646;SDS011;56315;-33.902;151.160;2023-04-24T05:54:07;18.85;;;4.32;;
44646;SDS011;56315;-33.902;151.160;2023-04-24T05:56:34;18.50;;;4.93;;
44646;SDS011;56315;-33.902;151.160;2023-04-24T05:59:01;22.92;;;5.35;;
44646;SDS011;56315;-33.902;151.160;2023-04-24T06:01:29;18.75;;;4.50;;
44646;SDS011;56315;-33.902;151.160;2023-04-24T06:03:57;23.60;;;5.07;;
44646;SDS011;56315;-33.902;151.160;2023-04-24T06:06:24;24.58;;;4.30;;
44646;SDS011;56315;-33.902;151.160;2023-04-24T06:08:52;25.52;;;4.95;;
44646;SDS011;56315;-33.902;151.160;2023-04-24T06:11:19;22.33;;;4.60;;
44646;SDS011;56315;-33.902;151.160;2023-04-24T06:13:48;27.98;;;5.63;;
44646;SDS011;56315;-33.902;151.160;2023-04-24T06:16:15;26.45;;;5.80;;
44646;SDS011;56315;-33.902;151.160;2023-04-24T06:18:42;19.55;;;5.13;;
44646;SDS011;56315;-33.902;151.160;2023-04-24T06:21:12;25.65;;;4.63;;
44646;SDS011;56315;-33.902;151.160;2023-04-24T06:23:41;21.15;;;5.43;;
44646;SDS011;56315;-33.902;151.160;2023-04-24T06:26:08;23.55;;;6.25;;
44646;SDS011;56315;-33.902;151.160;2023-04-24T06:28:35;23.42;;;5.40;;
44646;SDS011;56315;-33.902;151.160;2023-04-24T06:31:03;20.23;;;5.00;;
44646;SDS011;56315;-33.902;151.160;2023-04-24T06:33:30;22.92;;;5.07;;
44646;SDS011;56315;-33.902;151.160;2023-04-24T06:35:57;24.92;;;5.65;;
44646;SDS011;56315;-33.902;151.160;2023-04-24T06:38:25;28.95;;;4.72;;
44646;SDS011;56315;-33.902;151.160;2023-04-24T06:40:52;27.95;;;5.55;;
44646;SDS011;56315;-33.902;151.160;2023-04-24T06:43:19;25.02;;;5.15;;
44646;SDS011;56315;-33.902;151.160;2023-04-24T06:45:46;23.63;;;4.85;;
44646;SDS011;56315;-33.902;151.160;2023-04-24T06:48:14;24.30;;;5.35;;
44646;SDS011;56315;-33.902;151.160;2023-04-24T06:50:41;22.15;;;4.80;;
44646;SDS011;56315;-33.902;151.160;2023-04-24T06:53:08;20.92;;;4.80;;
44646;SDS011;56315;-33.902;151.160;2023-04-24T06:55:36;22.35;;;6.30;;
44646;SDS011;56315;-33.902;151.160;2023-04-24T06:58:03;24.20;;;5.05;;
44646;SDS011;56315;-33.902;151.160;2023-04-24T07:00:31;24.55;;;4.75;;
44646;SDS011;56315;-33.902;151.160;2023-04-24T07:03:00;17.08;;;4.65;;
44646;SDS011;56315;-33.902;151.160;2023-04-24T07:05:36;20.13;;;4.85;;
44646;SDS011;56315;-33.902;151.160;2023-04-24T07:08:04;21.25;;;4.38;;
44646;SDS011;56315;-33.902;151.160;2023-04-24T07:10:32;21.40;;;5.32;;
44646;SDS011;56315;-33.902;151.160;2023-04-24T07:13:01;26.00;;;5.38;;
44646;SDS011;56315;-33.902;151.160;2023-04-24T07:15:28;20.13;;;5.20;;
44646;SDS011;56315;-33.902;151.160;2023-04-24T07:17:56;23.13;;;4.65;;
44646;SDS011;56315;-33.902;151.160;2023-04-24T07:20:23;17.27;;;3.53;;
44646;SDS011;56315;-33.902;151.160;2023-04-24T07:22:50;22.63;;;5.25;;
44646;SDS011;56315;-33.902;151.160;2023-04-24T07:25:19;16.67;;;4.60;;
44646;SDS011;56315;-33.902;151.160;2023-04-24T07:27:47;17.58;;;3.97;;
44646;SDS011;56315;-33.902;151.160;2023-04-24T07:30:14;17.50;;;4.88;;
44646;SDS011;56315;-33.902;151.160;2023-04-24T07:32:43;22.13;;;4.47;;
44646;SDS011;56315;-33.902;151.160;2023-04-24T07:35:10;22.17;;;4.20;;
44646;SDS011;56315;-33.902;151.160;2023-04-24T07:37:37;12.43;;;3.50;;
44646;SDS011;56315;-33.902;151.160;2023-04-24T07:40:05;14.90;;;4.03;;
44646;SDS011;56315;-33.902;151.160;2023-04-24T07:42:33;18.35;;;4.18;;
44646;SDS011;56315;-33.902;151.160;2023-04-24T07:45:01;13.43;;;3.33;;
44646;SDS011;56315;-33.902;151.160;2023-04-24T07:47:29;14.93;;;3.15;;
44646;SDS011;56315;-33.902;151.160;2023-04-24T07:49:56;17.63;;;3.88;;
44646;SDS011;56315;-33.902;151.160;2023-04-24T07:52:24;16.30;;;3.35;;
44646;SDS011;56315;-33.902;151.160;2023-04-24T07:54:52;16.40;;;3.55;;
44646;SDS011;56315;-33.902;151.160;2023-04-24T07:57:24;18.20;;;4.95;;
44646;SDS011;56315;-33.902;151.160;2023-04-24T07:59:51;15.75;;;3.33;;
44646;SDS011;56315;-33.902;151.160;2023-04-24T08:02:18;14.70;;;3.50;;
44646;SDS011;56315;-33.902;151.160;2023-04-24T08:04:47;15.60;;;3.80;;
44646;SDS011;56315;-33.902;151.160;2023-04-24T08:07:14;14.38;;;3.92;;
44646;SDS011;56315;-33.902;151.160;2023-04-24T08:09:42;17.02;;;4.07;;
44646;SDS011;56315;-33.902;151.160;2023-04-24T08:12:09;12.82;;;2.97;;
44646;SDS011;56315;-33.902;151.160;2023-04-24T08:14:36;14.48;;;3.47;;
44646;SDS011;56315;-33.902;151.160;2023-04-24T08:17:04;12.80;;;3.40;;
44646;SDS011;56315;-33.902;151.160;2023-04-24T08:19:31;12.30;;;2.78;;
44646;SDS011;56315;-33.902;151.160;2023-04-24T08:21:58;11.15;;;2.80;;
44646;SDS011;56315;-33.902;151.160;2023-04-24T08:24:26;16.25;;;3.25;;
44646;SDS011;56315;-33.902;151.160;2023-04-24T08:26:53;12.40;;;3.25;;
44646;SDS011;56315;-33.902;151.160;2023-04-24T08:29:22;13.90;;;3.67;;
44646;SDS011;56315;-33.902;151.160;2023-04-24T08:31:50;13.23;;;3.20;;
44646;SDS011;56315;-33.902;151.160;2023-04-24T08:34:20;13.25;;;3.30;;
44646;SDS011;56315;-33.902;151.160;2023-04-24T08:36:47;17.17;;;4.50;;
44646;SDS011;56315;-33.902;151.160;2023-04-24T08:39:15;12.93;;;3.05;;
44646;SDS011;56315;-33.902;151.160;2023-04-24T08:41:43;13.55;;;3.40;;
44646;SDS011;56315;-33.902;151.160;2023-04-24T08:44:11;15.60;;;3.83;;
44646;SDS011;56315;-33.902;151.160;2023-04-24T08:46:42;13.88;;;3.88;;
44646;SDS011;56315;-33.902;151.160;2023-04-24T08:49:12;15.27;;;3.72;;
44646;SDS011;56315;-33.902;151.160;2023-04-24T08:51:44;17.80;;;5.18;;
44646;SDS011;56315;-33.902;151.160;2023-04-24T08:54:15;16.95;;;5.07;;
44646;SDS011;56315;-33.902;151.160;2023-04-24T08:56:44;13.63;;;4.03;;
44646;SDS011;56315;-33.902;151.160;2023-04-24T08:59:13;15.63;;;4.38;;
44646;SDS011;56315;-33.902;151.160;2023-04-24T09:01:41;18.98;;;5.63;;
44646;SDS011;56315;-33.902;151.160;2023-04-24T09:04:11;20.35;;;5.63;;
44646;SDS011;56315;-33.902;151.160;2023-04-24T09:06:41;16.73;;;5.22;;
44646;SDS011;56315;-33.902;151.160;2023-04-24T09:09:09;19.02;;;5.30;;
44646;SDS011;56315;-33.902;151.160;2023-04-24T09:11:37;20.63;;;5.70;;
44646;SDS011;56315;-33.902;151.160;2023-04-24T09:14:05;23.90;;;5.78;;
44646;SDS011;56315;-33.902;151.160;2023-04-24T09:16:35;18.88;;;7.15;;
44646;SDS011;56315;-33.902;151.160;2023-04-24T09:19:03;18.27;;;4.95;;
44646;SDS011;56315;-33.902;151.160;2023-04-24T09:21:34;15.73;;;5.00;;
44646;SDS011;56315;-33.902;151.160;2023-04-24T09:24:03;17.40;;;5.28;;
44646;SDS011;56315;-33.902;151.160;2023-04-24T09:26:35;20.50;;;5.75;;
44646;SDS011;56315;-33.902;151.160;2023-04-24T09:29:03;18.60;;;5.63;;
44646;SDS011;56315;-33.902;151.160;2023-04-24T09:31:31;19.67;;;6.03;;
44646;SDS011;56315;-33.902;151.160;2023-04-24T09:36:45;22.70;;;8.02;;
44646;SDS011;56315;-33.902;151.160;2023-04-24T09:39:14;29.60;;;8.57;;
44646;SDS011;56315;-33.902;151.160;2023-04-24T09:44:19;17.95;;;6.15;;
44646;SDS011;56315;-33.902;151.160;2023-04-24T09:46:51;19.60;;;5.78;;
44646;SDS011;56315;-33.902;151.160;2023-04-24T09:49:24;19.17;;;7.10;;
44646;SDS011;56315;-33.902;151.160;2023-04-24T09:52:02;25.20;;;6.25;;
44646;SDS011;56315;-33.902;151.160;2023-04-24T09:54:33;19.50;;;5.95;;
44646;SDS011;56315;-33.902;151.160;2023-04-24T09:57:02;17.33;;;5.40;;
44646;SDS011;56315;-33.902;151.160;2023-04-24T09:59:30;20.73;;;5.35;;
44646;SDS011;56315;-33.902;151.160;2023-04-24T10:02:01;17.67;;;5.05;;
44646;SDS011;56315;-33.902;151.160;2023-04-24T10:04:29;18.20;;;5.63;;
44646;SDS011;56315;-33.902;151.160;2023-04-24T10:06:57;18.38;;;4.85;;
44646;SDS011;56315;-33.902;151.160;2023-04-24T10:09:25;18.38;;;5.68;;
44646;SDS011;56315;-33.902;151.160;2023-04-24T10:11:54;17.63;;;5.40;;
44646;SDS011;56315;-33.902;151.160;2023-04-24T10:14:22;19.48;;;5.97;;
44646;SDS011;56315;-33.902;151.160;2023-04-24T10:16:52;18.20;;;4.60;;
44646;SDS011;56315;-33.902;151.160;2023-04-24T10:19:22;16.02;;;4.82;;
44646;SDS011;56315;-33.902;151.160;2023-04-24T10:21:52;15.38;;;4.78;;
44646;SDS011;56315;-33.902;151.160;2023-04-24T10:24:21;23.58;;;5.18;;
44646;SDS011;56315;-33.902;151.160;2023-04-24T10:26:48;16.50;;;4.60;;
44646;SDS011;56315;-33.902;151.160;2023-04-24T10:29:17;19.63;;;5.60;;
44646;SDS011;56315;-33.902;151.160;2023-04-24T10:31:45;24.48;;;7.18;;
44646;SDS011;56315;-33.902;151.160;2023-04-24T10:34:14;18.85;;;5.35;;
44646;SDS011;56315;-33.902;151.160;2023-04-24T10:36:50;17.15;;;5.53;;
44646;SDS011;56315;-33.902;151.160;2023-04-24T10:39:18;19.13;;;5.07;;
44646;SDS011;56315;-33.902;151.160;2023-04-24T10:41:48;15.45;;;4.70;;
44646;SDS011;56315;-33.902;151.160;2023-04-24T10:44:17;19.27;;;5.10;;
44646;SDS011;56315;-33.902;151.160;2023-04-24T10:46:45;16.45;;;5.30;;
44646;SDS011;56315;-33.902;151.160;2023-04-24T10:49:16;18.08;;;5.18;;
44646;SDS011;56315;-33.902;151.160;2023-04-24T10:51:52;14.93;;;4.97;;
44646;SDS011;56315;-33.902;151.160;2023-04-24T11:02:20;14.35;;;5.05;;
44646;SDS011;56315;-33.902;151.160;2023-04-24T11:05:03;17.27;;;5.82;;
44646;SDS011;56315;-33.902;151.160;2023-04-24T11:10:47;18.88;;;5.20;;
44646;SDS011;56315;-33.902;151.160;2023-04-24T11:16:38;16.77;;;5.80;;
44646;SDS011;56315;-33.902;151.160;2023-04-24T11:19:24;12.95;;;5.18;;
44646;SDS011;56315;-33.902;151.160;2023-04-24T11:24:22;19.50;;;6.13;;
44646;SDS011;56315;-33.902;151.160;2023-04-24T11:27:05;14.10;;;5.10;;
44646;SDS011;56315;-33.902;151.160;2023-04-24T11:32:37;20.00;;;5.85;;
44646;SDS011;56315;-33.902;151.160;2023-04-24T11:35:15;16.27;;;5.05;;
44646;SDS011;56315;-33.902;151.160;2023-04-24T11:37:54;13.43;;;5.22;;
44646;SDS011;56315;-33.902;151.160;2023-04-24T11:40:22;16.60;;;5.65;;
44646;SDS011;56315;-33.902;151.160;2023-04-24T11:42:51;14.57;;;4.93;;
44646;SDS011;56315;-33.902;151.160;2023-04-24T11:45:26;14.15;;;5.20;;
44646;SDS011;56315;-33.902;151.160;2023-04-24T11:47:55;15.68;;;5.72;;
44646;SDS011;56315;-33.902;151.160;2023-04-24T11:50:23;16.75;;;5.57;;
44646;SDS011;56315;-33.902;151.160;2023-04-24T11:52:53;17.90;;;5.80;;
44646;SDS011;56315;-33.902;151.160;2023-04-24T11:57:55;14.52;;;5.30;;
44646;SDS011;56315;-33.902;151.160;2023-04-24T12:00:24;20.65;;;5.95;;
44646;SDS011;56315;-33.902;151.160;2023-04-24T12:03:09;12.60;;;5.20;;
44646;SDS011;56315;-33.902;151.160;2023-04-24T12:05:38;16.07;;;6.17;;
44646;SDS011;56315;-33.902;151.160;2023-04-24T12:08:05;16.23;;;6.32;;
44646;SDS011;56315;-33.902;151.160;2023-04-24T12:10:33;12.55;;;5.28;;
44646;SDS011;56315;-33.902;151.160;2023-04-24T12:13:01;13.82;;;4.90;;
44646;SDS011;56315;-33.902;151.160;2023-04-24T12:15:29;13.77;;;5.10;;
44646;SDS011;56315;-33.902;151.160;2023-04-24T12:17:56;15.32;;;5.05;;
44646;SDS011;56315;-33.902;151.160;2023-04-24T12:20:27;12.63;;;5.32;;
44646;SDS011;56315;-33.902;151.160;2023-04-24T12:22:59;14.30;;;5.15;;
44646;SDS011;56315;-33.902;151.160;2023-04-24T12:25:28;13.50;;;5.68;;
44646;SDS011;56315;-33.902;151.160;2023-04-24T12:30:31;11.77;;;4.93;;
44646;SDS011;56315;-33.902;151.160;2023-04-24T12:33:06;17.83;;;5.43;;
44646;SDS011;56315;-33.902;151.160;2023-04-24T12:35:33;14.93;;;5.75;;
44646;SDS011;56315;-33.902;151.160;2023-04-24T12:38:12;13.23;;;5.07;;
44646;SDS011;56315;-33.902;151.160;2023-04-24T12:40:41;18.95;;;6.35;;
44646;SDS011;56315;-33.902;151.160;2023-04-24T12:43:15;14.27;;;6.15;;
44646;SDS011;56315;-33.902;151.160;2023-04-24T12:45:43;13.60;;;5.80;;
44646;SDS011;56315;-33.902;151.160;2023-04-24T12:48:11;16.20;;;6.32;;
44646;SDS011;56315;-33.902;151.160;2023-04-24T12:50:42;13.70;;;5.55;;
44646;SDS011;56315;-33.902;151.160;2023-04-24T12:53:10;15.15;;;5.57;;
44646;SDS011;56315;-33.902;151.160;2023-04-24T12:55:37;17.17;;;5.57;;
44646;SDS011;56315;-33.902;151.160;2023-04-24T12:58:05;14.90;;;5.88;;
44646;SDS011;56315;-33.902;151.160;2023-04-24T13:00:33;14.57;;;5.65;;
44646;SDS011;56315;-33.902;151.160;2023-04-24T13:03:01;17.20;;;5.85;;
44646;SDS011;56315;-33.902;151.160;2023-04-24T13:05:29;13.40;;;5.22;;
44646;SDS011;56315;-33.902;151.160;2023-04-24T13:07:57;13.80;;;5.60;;
44646;SDS011;56315;-33.902;151.160;2023-04-24T13:10:24;15.18;;;5.20;;
44646;SDS011;56315;-33.902;151.160;2023-04-24T13:12:51;47.03;;;36.60;;
44646;SDS011;56315;-33.902;151.160;2023-04-24T13:15:19;55.80;;;45.00;;
44646;SDS011;56315;-33.902;151.160;2023-04-24T13:17:46;44.83;;;33.28;;
44646;SDS011;56315;-33.902;151.160;2023-04-24T13:20:14;33.30;;;22.25;;
44646;SDS011;56315;-33.902;151.160;2023-04-24T13:22:41;27.58;;;18.73;;
44646;SDS011;56315;-33.902;151.160;2023-04-24T13:25:09;32.55;;;19.92;;
44646;SDS011;56315;-33.902;151.160;2023-04-24T13:27:39;23.38;;;16.08;;
44646;SDS011;56315;-33.902;151.160;2023-04-24T13:30:07;22.50;;;14.57;;
44646;SDS011;56315;-33.902;151.160;2023-04-24T13:32:34;21.92;;;12.35;;
44646;SDS011;56315;-33.902;151.160;2023-04-24T13:35:02;23.88;;;10.73;;
44646;SDS011;56315;-33.902;151.160;2023-04-24T13:37:30;22.63;;;10.35;;
44646;SDS011;56315;-33.902;151.160;2023-04-24T13:39:57;19.48;;;10.55;;
44646;SDS011;56315;-33.902;151.160;2023-04-24T13:42:25;18.90;;;9.07;;
44646;SDS011;56315;-33.902;151.160;2023-04-24T13:44:52;17.98;;;9.27;;
44646;SDS011;56315;-33.902;151.160;2023-04-24T13:47:20;18.48;;;7.85;;
44646;SDS011;56315;-33.902;151.160;2023-04-24T13:49:47;15.60;;;7.07;;
44646;SDS011;56315;-33.902;151.160;2023-04-24T13:52:15;16.92;;;5.90;;
44646;SDS011;56315;-33.902;151.160;2023-04-24T13:54:42;15.68;;;6.43;;
44646;SDS011;56315;-33.902;151.160;2023-04-24T13:57:10;20.67;;;8.23;;
44646;SDS011;56315;-33.902;151.160;2023-04-24T13:59:38;18.13;;;6.50;;
44646;SDS011;56315;-33.902;151.160;2023-04-24T14:02:05;16.38;;;6.88;;
44646;SDS011;56315;-33.902;151.160;2023-04-24T14:04:32;18.42;;;6.88;;
44646;SDS011;56315;-33.902;151.160;2023-04-24T14:07:00;18.08;;;6.22;;
44646;SDS011;56315;-33.902;151.160;2023-04-24T14:09:27;18.88;;;6.18;;
44646;SDS011;56315;-33.902;151.160;2023-04-24T14:11:55;15.02;;;5.40;;
44646;SDS011;56315;-33.902;151.160;2023-04-24T14:14:22;17.02;;;6.00;;
44646;SDS011;56315;-33.902;151.160;2023-04-24T14:16:50;24.13;;;7.00;;
44646;SDS011;56315;-33.902;151.160;2023-04-24T14:19:17;18.85;;;6.53;;
44646;SDS011;56315;-33.902;151.160;2023-04-24T14:21:44;15.85;;;6.03;;
44646;SDS011;56315;-33.902;151.160;2023-04-24T14:24:12;19.92;;;5.95;;
44646;SDS011;56315;-33.902;151.160;2023-04-24T14:26:39;19.92;;;5.63;;
44646;SDS011;56315;-33.902;151.160;2023-04-24T14:29:07;20.70;;;6.60;;
44646;SDS011;56315;-33.902;151.160;2023-04-24T14:31:34;23.35;;;6.43;;
44646;SDS011;56315;-33.902;151.160;2023-04-24T14:34:02;19.75;;;5.93;;
44646;SDS011;56315;-33.902;151.160;2023-04-24T14:36:29;16.55;;;6.15;;